Time;durP1;ratioP1;P1;durP2;ratioP2;P2;SDS_P1;SDS_P2;PMS_P1;PMS_P2;Temp;Humidity;BMP_temperature;BMP_pressure;BME280_temperature;BME280_humidity;BME280_pressure;Samples;Min_cycle;Max_cycle;Signal;HPM_P1;HPM_P2
2022/02/06 00:42:55;;;;;;;5.35;1.73;;;;;;;;;;12767141;23;20052;-82
2022/02/06 00:47:56;;;;;;;5.93;1.70;;;;;;;;;;12740574;23;20005;-82
2022/02/06 00:53:04;;;;;;;5.85;1.77;;;;;;;;;;12742736;23;20005;-82
2022/02/06 00:58:08;;;;;;;5.55;1.92;;;;;;;;;;12745059;23;20010;-82
2022/02/06 01:03:09;;;;;;;3.03;1.60;;;;;;;;;;12744203;23;20009;-82
2022/02/06 01:08:10;;;;;;;;;;;;;;;;;;12741944;23;20012;-82
2022/02/06 01:13:34;;;;;;;4.55;1.92;;;;;;;;;;12743346;23;19980;-82
2022/02/06 01:18:44;;;;;;;5.15;2.05;;;;;;;;;;12827610;23;20012;-82
2022/02/06 01:24:09;;;;;;;6.45;1.90;;;;;;;;;;12798983;23;20001;-82
2022/02/06 01:29:17;;;;;;;4.20;1.40;;;;;;;;;;12823140;23;20009;-82
2022/02/06 01:34:39;;;;;;;3.05;1.55;;;;;;;;;;12797032;23;20005;-82
2022/02/06 01:39:55;;;;;;;6.57;1.90;;;;;;;;;;12796329;23;20005;-82
2022/02/06 02:01:16;;;;;;;4.82;1.40;;;;;;;;;;12827530;23;20013;-82
2022/02/06 02:17:03;;;;;;;3.65;1.63;;;;;;;;;;12850835;23;20101;-82
2022/02/06 02:22:30;;;;;;;3.72;1.67;;;;;;;;;;12831478;23;20001;-83
2022/02/06 02:27:47;;;;;;;6.30;1.90;;;;;;;;;;12805367;23;20013;-82
2022/02/06 02:48:31;;;;;;;6.70;2.28;;;;;;;;;;12846813;23;20009;-82
2022/02/06 02:53:49;;;;;;;7.30;2.25;;;;;;;;;;12805079;23;20005;-82
2022/02/06 02:59:06;;;;;;;5.38;2.10;;;;;;;;;;12802522;23;20005;-82
2022/02/06 03:04:08;;;;;;;4.60;2.10;;;;;;;;;;12803075;23;20009;-82
2022/02/06 03:09:13;;;;;;;5.22;2.00;;;;;;;;;;12800522;23;20012;-82
2022/02/06 03:14:26;;;;;;;5.00;2.10;;;;;;;;;;12800039;23;20064;-83
2022/02/06 03:19:27;;;;;;;4.03;1.88;;;;;;;;;;12827082;23;20012;-81
2022/02/06 03:24:35;;;;;;;;;;;;;;;;;;12808247;23;19981;-82
2022/02/06 03:29:36;;;;;;;5.15;2.08;;;;;;;;;;12826726;23;19888;-81
2022/02/06 03:34:37;;;;;;;6.30;2.10;;;;;;;;;;12826807;23;20005;-82
2022/02/06 03:39:42;;;;;;;5.18;1.70;;;;;;;;;;12828819;23;20028;-82
2022/02/06 03:44:50;;;;;;;6.90;2.30;;;;;;;;;;12827124;23;20012;-82
2022/02/06 03:50:01;;;;;;;6.97;2.38;;;;;;;;;;12820375;23;20414;-83
2022/02/06 03:55:03;;;;;;;9.57;2.78;;;;;;;;;;12822945;23;20017;-82
2022/02/06 04:00:04;;;;;;;5.80;2.22;;;;;;;;;;12828936;23;20008;-82
2022/02/06 04:05:05;;;;;;;;;;;;;;;;;;12817620;23;20452;-82
2022/02/06 04:10:09;;;;;;;3.93;1.93;;;;;;;;;;12815183;23;19927;-82
2022/02/06 04:15:26;;;;;;;4.97;2.13;;;;;;;;;;12839318;23;20013;-83
2022/02/06 04:20:35;;;;;;;5.85;1.90;;;;;;;;;;12840310;23;20001;-83
2022/02/06 04:25:36;;;;;;;;;;;;;;;;;;12816629;23;20412;-83
2022/02/06 04:30:43;;;;;;;4.13;2.08;;;;;;;;;;12819197;23;19922;-82
2022/02/06 04:35:45;;;;;;;4.97;1.98;;;;;;;;;;12817327;23;20015;-82
2022/02/06 04:51:50;;;;;;;4.30;1.80;;;;;;;;;;12850683;23;20016;-82
2022/02/06 05:28:34;;;;;;;4.07;2.00;;;;;;;;;;12841088;23;19900;-82
2022/02/06 05:33:36;;;;;;;4.88;1.67;;;;;;;;;;12812650;23;20009;-83
2022/02/06 05:38:37;;;;;;;6.43;1.92;;;;;;;;;;12810890;23;20033;-83
2022/02/06 05:43:39;;;;;;;3.92;1.90;;;;;;;;;;12805403;23;19997;-83
2022/02/06 05:48:40;;;;;;;3.30;1.67;;;;;;;;;;12799910;23;20009;-82
2022/02/06 05:53:41;;;;;;;3.58;1.42;;;;;;;;;;12824282;23;20005;-82
2022/02/06 05:58:43;;;;;;;4.82;2.45;;;;;;;;;;12792286;23;20001;-82
2022/02/06 06:03:50;;;;;;;4.28;2.30;;;;;;;;;;12807027;23;20445;-83
2022/02/06 06:08:51;;;;;;;3.88;2.00;;;;;;;;;;12810821;23;20005;-82
2022/02/06 06:13:53;;;;;;;4.28;1.83;;;;;;;;;;12809980;23;20448;-82
2022/02/06 06:18:54;;;;;;;5.82;2.40;;;;;;;;;;12809291;23;20005;-83
2022/02/06 06:23:56;;;;;;;;;;;;;;;;;;12809056;23;20365;-82
2022/02/06 06:28:57;;;;;;;3.92;2.28;;;;;;;;;;12807591;23;19900;-82
2022/02/06 06:33:58;;;;;;;;;;;;;;;;;;12809312;23;20016;-82
2022/02/06 06:39:24;;;;;;;2.88;1.83;;;;;;;;;;12807686;23;19932;-84
2022/02/06 07:07:14;;;;;;;;;;;;;;;;;;12704289;23;20002;-84
2022/02/06 07:13:17;;;;;;;4.10;1.85;;;;;;;;;;12585560;23;19922;-84
2022/02/06 07:19:29;;;;;;;8.60;2.67;;;;;;;;;;12507781;23;20015;-84
2022/02/06 07:25:09;;;;;;;5.45;2.33;;;;;;;;;;12404102;23;20014;-84
2022/02/06 07:36:36;;;;;;;3.38;2.03;;;;;;;;;;12465562;23;20016;-84
2022/02/06 08:44:59;;;;;;;3.13;1.30;;;;;;;;;;12645876;23;20022;-84
2022/02/06 08:50:29;;;;;;;1.75;1.00;;;;;;;;;;12649562;23;20009;-84
2022/02/06 08:56:15;;;;;;;1.95;1.17;;;;;;;;;;12830864;23;20081;-84
2022/02/06 09:08:07;;;;;;;2.97;1.23;;;;;;;;;;12833791;23;20009;-83
2022/02/06 09:19:39;;;;;;;3.85;1.40;;;;;;;;;;12587573;23;20093;-83
2022/02/06 09:24:44;;;;;;;2.63;1.50;;;;;;;;;;12574426;23;20011;-82
2022/02/06 09:29:45;;;;;;;;;;;;;;;;;;12741555;23;20029;-82
2022/02/06 09:39:47;;;;;;;3.70;1.63;;;;;;;;;;12834877;23;20337;-82
2022/02/06 09:44:49;;;;;;;2.17;1.23;;;;;;;;;;12809606;23;20009;-82
2022/02/06 09:49:50;;;;;;;2.55;1.27;;;;;;;;;;12815080;23;20005;-82
2022/02/06 09:54:51;;;;;;;;;;;;;;;;;;12840912;23;20004;-82
2022/02/06 09:59:56;;;;;;;1.93;0.93;;;;;;;;;;12816184;23;19945;-82
2022/02/06 10:04:58;;;;;;;2.97;1.00;;;;;;;;;;12815957;23;20008;-82
2022/02/06 10:10:02;;;;;;;1.33;0.80;;;;;;;;;;12819298;23;20005;-82
2022/02/06 10:15:08;;;;;;;1.77;0.80;;;;;;;;;;12822961;23;20009;-83
2022/02/06 10:20:13;;;;;;;2.95;1.10;;;;;;;;;;12818840;23;20020;-83
2022/02/06 10:25:17;;;;;;;1.90;0.90;;;;;;;;;;12819861;23;20024;-83
2022/02/06 10:30:20;;;;;;;1.65;0.68;;;;;;;;;;12820253;23;20426;-82
2022/02/06 10:35:21;;;;;;;2.25;0.70;;;;;;;;;;12819194;23;20065;-83
2022/02/06 10:40:23;;;;;;;1.02;0.52;;;;;;;;;;12819033;23;20021;-82
2022/02/06 10:45:26;;;;;;;1.80;0.68;;;;;;;;;;12846206;23;20011;-83
2022/02/06 10:50:28;;;;;;;1.00;0.57;;;;;;;;;;12819229;23;20032;-83
2022/02/06 10:55:30;;;;;;;1.20;0.50;;;;;;;;;;12818032;23;20032;-82
2022/02/06 11:00:34;;;;;;;1.73;0.52;;;;;;;;;;12818258;23;20069;-83
2022/02/06 11:05:47;;;;;;;1.77;0.60;;;;;;;;;;12819192;23;20001;-83
2022/02/06 11:10:58;;;;;;;4.07;0.70;;;;;;;;;;12818433;23;20005;-83
2022/02/06 11:16:01;;;;;;;2.10;0.60;;;;;;;;;;12819603;23;20019;-82
2022/02/06 11:21:09;;;;;;;1.38;0.50;;;;;;;;;;12821970;23;20008;-82
2022/02/06 11:26:12;;;;;;;0.88;0.43;;;;;;;;;;12822088;23;20013;-83
2022/02/06 11:31:16;;;;;;;1.63;0.52;;;;;;;;;;12822074;23;20009;-83
2022/02/06 11:42:58;;;;;;;1.10;0.50;;;;;;;;;;12821964;23;20032;-83
2022/02/06 11:46:58;;;;;;;1.15;0.50;;;;;;;;;;12848779;23;19908;-82
2022/02/06 11:51:59;;;;;;;;;;;;;;;;;;12819535;23;20005;-83
2022/02/06 11:57:15;;;;;;;1.47;0.53;;;;;;;;;;12835441;23;19904;-83
2022/02/06 12:02:26;;;;;;;1.27;0.43;;;;;;;;;;12807071;23;20228;-83
2022/02/06 12:07:47;;;;;;;0.95;0.55;;;;;;;;;;12839816;23;20024;-82
2022/02/06 12:13:08;;;;;;;0.95;0.50;;;;;;;;;;12834149;23;20056;-82
2022/02/06 12:18:11;;;;;;;1.80;0.77;;;;;;;;;;12818255;23;20012;-82
2022/02/06 12:23:31;;;;;;;0.98;0.40;;;;;;;;;;12816966;23;19997;-83
2022/02/06 12:28:40;;;;;;;0.95;0.50;;;;;;;;;;12847489;23;20020;-83
2022/02/06 12:33:50;;;;;;;1.02;0.50;;;;;;;;;;12821116;23;20009;-83
